createdAt,value
2018-05-23T00:00:14.501Z,50.28
2018-05-23T00:01:18.605Z,49.79
2018-05-23T00:02:23.617Z,49.77
2018-05-23T00:03:27.780Z,49.76
2018-05-23T00:04:31.896Z,49.92
2018-05-23T00:05:36.024Z,50.03
2018-05-23T00:06:40.519Z,50.14
2018-05-23T00:07:44.638Z,50.10
2018-05-23T00:08:48.778Z,50.05
2018-05-23T00:09:52.909Z,50.10
2018-05-23T00:10:57.017Z,49.96
2018-05-23T00:12:01.213Z,50.07
2018-05-23T00:13:05.592Z,49.46
2018-05-23T00:14:10.700Z,49.27
2018-05-23T00:15:16.400Z,49.44
2018-05-23T00:16:20.535Z,49.39
2018-05-23T00:17:24.737Z,49.36
2018-05-23T00:18:28.850Z,49.26
2018-05-23T00:19:32.967Z,49.18
2018-05-23T00:20:37.150Z,49.21
2018-05-23T00:21:41.236Z,49.46
2018-05-23T00:22:45.437Z,49.37
2018-05-23T00:23:49.903Z,49.13
2018-05-23T00:24:54.386Z,49.36
2018-05-23T00:25:58.505Z,49.31
2018-05-23T00:27:03.858Z,49.42
2018-05-23T00:28:08.026Z,49.57
2018-05-23T00:29:12.112Z,49.48
2018-05-23T00:30:16.525Z,49.41
2018-05-23T00:31:21.619Z,49.17
2018-05-23T00:32:26.136Z,49.22
2018-05-23T00:33:30.424Z,49.38
2018-05-23T00:34:34.942Z,49.28
2018-05-23T00:35:39.069Z,49.26
2018-05-23T00:36:43.298Z,49.39
2018-05-23T00:37:47.433Z,48.90
2018-05-23T00:38:51.629Z,48.92
2018-05-23T00:39:55.810Z,49.09
2018-05-23T00:40:59.933Z,48.87
2018-05-23T00:42:04.572Z,48.98
2018-05-23T00:43:09.068Z,48.84
2018-05-23T00:44:14.060Z,48.89
2018-05-23T00:45:18.564Z,48.96
2018-05-23T00:46:23.049Z,48.91
2018-05-23T00:47:27.438Z,48.73
2018-05-23T00:48:31.760Z,48.70
2018-05-23T00:49:36.310Z,48.68
2018-05-23T00:50:40.713Z,48.57
2018-05-23T00:51:44.888Z,48.34
2018-05-23T00:52:48.961Z,48.46
2018-05-23T00:53:53.228Z,48.59
2018-05-23T00:55:06.046Z,48.43
2018-05-23T00:56:10.194Z,48.32
2018-05-23T00:57:14.579Z,48.56
2018-05-23T00:58:18.761Z,48.55
2018-05-23T00:59:22.929Z,48.73
2018-05-23T01:00:27.444Z,48.90
2018-05-23T01:01:31.788Z,49.06
2018-05-23T01:02:36.548Z,48.89
2018-05-23T01:03:40.936Z,48.90
2018-05-23T01:04:45.101Z,49.03
2018-05-23T01:05:49.199Z,48.92
2018-05-23T01:06:53.410Z,48.91
2018-05-23T01:07:57.529Z,49.02
2018-05-23T01:09:01.918Z,49.02
2018-05-23T01:10:07.026Z,49.12
2018-05-23T01:11:11.185Z,49.05
2018-05-23T01:12:15.293Z,49.14
2018-05-23T01:13:19.391Z,49.05
2018-05-23T01:14:23.553Z,49.19
2018-05-23T01:15:28.344Z,49.33
2018-05-23T01:16:32.412Z,49.53
2018-05-23T01:17:36.587Z,49.80
2018-05-23T01:18:40.676Z,49.92
2018-05-23T01:19:44.806Z,50.02
2018-05-23T01:20:48.984Z,50.13
2018-05-23T01:21:53.387Z,49.93
2018-05-23T01:22:57.495Z,50.01
2018-05-23T01:24:01.613Z,50.03
2018-05-23T01:25:05.749Z,50.18
2018-05-23T01:26:10.839Z,50.39
2018-05-23T01:27:14.917Z,50.69
2018-05-23T01:28:19.011Z,50.68
2018-05-23T01:29:23.213Z,50.64
2018-05-23T01:30:28.002Z,50.55
2018-05-23T01:31:32.249Z,50.44
2018-05-23T01:32:36.347Z,50.52
2018-05-23T01:33:40.563Z,50.57
2018-05-23T01:34:44.985Z,50.55
2018-05-23T01:35:49.067Z,50.55
2018-05-23T01:36:53.195Z,50.33
2018-05-23T01:37:57.604Z,50.35
2018-05-23T01:39:02.820Z,50.41
2018-05-23T01:40:06.904Z,50.63
2018-05-23T01:41:11.268Z,50.79
2018-05-23T01:42:15.368Z,50.71
2018-05-23T01:43:19.948Z,50.80
2018-05-23T01:44:24.099Z,50.86
2018-05-23T01:45:28.643Z,51.06
2018-05-23T01:46:33.173Z,51.17
2018-05-23T01:47:38.439Z,51.15
2018-05-23T01:48:51.560Z,51.26
2018-05-23T01:49:56.205Z,51.45
2018-05-23T01:51:00.331Z,51.63
2018-05-23T01:52:04.684Z,51.85
2018-05-23T01:53:09.097Z,51.99
2018-05-23T01:54:13.174Z,52.18
2018-05-23T01:55:17.340Z,52.19
2018-05-23T01:56:21.448Z,52.06
2018-05-23T01:57:25.552Z,52.08
2018-05-23T01:58:29.628Z,52.16
2018-05-23T01:59:34.123Z,52.05
2018-05-23T02:00:38.609Z,52.25
2018-05-23T02:01:42.709Z,52.46
2018-05-23T02:02:47.195Z,52.55
2018-05-23T02:03:51.304Z,52.56
2018-05-23T02:04:55.485Z,52.50
2018-05-23T02:05:59.886Z,52.75
2018-05-23T02:07:03.965Z,52.69
2018-05-23T02:08:08.060Z,52.74
2018-05-23T02:09:13.023Z,52.89
2018-05-23T02:10:17.991Z,52.88
2018-05-23T02:11:22.092Z,52.93
2018-05-23T02:12:26.591Z,52.85
2018-05-23T02:13:31.062Z,52.89
2018-05-23T02:14:35.385Z,53.01
2018-05-23T02:15:39.836Z,52.97
2018-05-23T02:16:43.965Z,53.12
2018-05-23T02:17:48.109Z,53.32
2018-05-23T02:18:52.192Z,53.44
2018-05-23T02:19:56.818Z,53.45
2018-05-23T02:21:00.905Z,53.53
2018-05-23T02:22:05.660Z,53.45
2018-05-23T02:23:10.079Z,53.54
2018-05-23T02:24:14.572Z,53.70
2018-05-23T02:25:19.030Z,53.78
2018-05-23T02:26:23.513Z,53.82
2018-05-23T02:27:28.238Z,53.98
2018-05-23T02:28:33.051Z,54.21
2018-05-23T02:29:37.452Z,54.22
2018-05-23T02:30:42.052Z,54.21
2018-05-23T02:31:46.892Z,54.10
2018-05-23T02:32:51.034Z,53.89
2018-05-23T02:33:55.625Z,53.88
2018-05-23T02:35:00.128Z,53.99
2018-05-23T02:36:04.228Z,54.04
2018-05-23T02:37:08.324Z,54.19
2018-05-23T02:38:14.286Z,54.46
2018-05-23T02:39:18.804Z,54.41
2018-05-23T02:40:22.902Z,54.41
2018-05-23T02:41:27.038Z,54.67
2018-05-23T02:42:31.176Z,54.57
2018-05-23T02:43:35.577Z,54.71
2018-05-23T02:44:40.028Z,55.04
2018-05-23T02:45:44.566Z,55.08
2018-05-23T02:46:48.676Z,55.08
2018-05-23T02:47:52.896Z,55.23
2018-05-23T02:48:57.002Z,55.38
2018-05-23T02:50:01.456Z,55.31
2018-05-23T02:51:06.178Z,55.15
2018-05-23T02:52:10.890Z,55.29
2018-05-23T02:53:15.074Z,55.34
2018-05-23T02:54:19.246Z,55.31
2018-05-23T02:55:23.346Z,55.59
2018-05-23T02:56:27.784Z,55.67
2018-05-23T02:57:31.887Z,55.73
2018-05-23T02:58:36.084Z,55.85
2018-05-23T02:59:40.226Z,55.78
2018-05-23T03:00:44.640Z,55.81
2018-05-23T03:01:48.773Z,55.68
2018-05-23T03:02:53.384Z,55.77
2018-05-23T03:03:57.455Z,55.75
2018-05-23T03:05:01.649Z,55.58
2018-05-23T03:06:05.774Z,55.71
2018-05-23T03:07:09.917Z,55.74
2018-05-23T03:08:14.031Z,55.74
2018-05-23T03:09:18.232Z,55.71
2018-05-23T03:10:22.320Z,55.83
2018-05-23T03:11:26.452Z,56.01
2018-05-23T03:12:30.948Z,56.01
2018-05-23T03:13:35.037Z,56.12
2018-05-23T03:14:39.146Z,55.87
2018-05-23T03:15:43.996Z,56.01
2018-05-23T03:16:48.130Z,56.12
2018-05-23T03:17:52.310Z,56.18
2018-05-23T03:18:56.708Z,56.23
2018-05-23T03:20:01.302Z,56.53
2018-05-23T03:21:06.612Z,56.59
2018-05-23T03:22:11.697Z,56.73
2018-05-23T03:23:16.314Z,56.72
2018-05-23T03:24:20.914Z,56.60
2018-05-23T03:25:25.644Z,56.42
2018-05-23T03:26:30.494Z,56.70
2018-05-23T03:27:35.054Z,56.87
2018-05-23T03:28:40.119Z,56.95
2018-05-23T03:29:44.290Z,56.97
2018-05-23T03:30:48.653Z,56.90
2018-05-23T03:31:52.793Z,56.80
2018-05-23T03:32:57.364Z,56.89
2018-05-23T03:34:01.466Z,56.86
2018-05-23T03:35:05.861Z,56.98
2018-05-23T03:36:09.957Z,57.25
2018-05-23T03:37:14.624Z,57.32
2018-05-23T03:38:18.726Z,57.37
2018-05-23T03:39:22.822Z,57.41
2018-05-23T03:40:27.311Z,57.35
2018-05-23T03:41:31.854Z,57.16
2018-05-23T03:42:36.153Z,57.12
2018-05-23T03:43:40.605Z,57.26
2018-05-23T03:44:45.110Z,57.39
2018-05-23T03:45:49.190Z,57.57
2018-05-23T03:46:53.797Z,57.51
2018-05-23T03:47:57.973Z,57.69
2018-05-23T03:49:02.066Z,58.00
2018-05-23T03:50:07.495Z,57.94
2018-05-23T03:51:11.641Z,57.76
2018-05-23T03:52:15.713Z,57.48
2018-05-23T03:53:20.217Z,57.43
2018-05-23T03:54:24.378Z,57.46
2018-05-23T03:55:28.532Z,57.47
2018-05-23T03:56:32.676Z,57.34
2018-05-23T03:57:36.798Z,57.38
2018-05-23T03:58:40.920Z,57.10
2018-05-23T03:59:53.793Z,57.06
2018-05-23T04:01:08.734Z,57.22
2018-05-23T04:04:27.487Z,57.37
2018-05-23T04:06:46.644Z,57.47
2018-05-23T04:07:50.742Z,57.43
2018-05-23T04:08:54.908Z,57.73
2018-05-23T04:09:59.126Z,57.86
2018-05-23T04:11:03.218Z,57.75
2018-05-23T04:12:07.763Z,57.71
2018-05-23T04:13:11.870Z,57.75
2018-05-23T04:14:16.070Z,57.71
2018-05-23T04:15:20.727Z,57.69
2018-05-23T04:16:24.818Z,57.45
2018-05-23T04:17:29.004Z,57.48
2018-05-23T04:18:33.436Z,57.65
2018-05-23T04:19:37.570Z,57.83
2018-05-23T04:20:41.658Z,57.99
2018-05-23T04:21:45.769Z,58.04
2018-05-23T04:22:49.888Z,57.75
2018-05-23T04:23:54.016Z,57.75
2018-05-23T04:24:58.287Z,57.85
2018-05-23T04:26:02.528Z,57.93
2018-05-23T04:27:06.824Z,57.88
2018-05-23T04:28:12.095Z,57.73
2018-05-23T04:29:17.946Z,57.69
2018-05-23T04:30:22.402Z,57.60
2018-05-23T04:31:26.868Z,57.80
2018-05-23T04:32:31.004Z,57.46
2018-05-23T04:33:35.101Z,57.31
2018-05-23T04:34:39.608Z,57.15
2018-05-23T04:35:43.910Z,56.75
2018-05-23T04:36:48.108Z,56.71
2018-05-23T04:37:52.496Z,56.44
2018-05-23T04:38:56.657Z,56.41
2018-05-23T04:40:00.851Z,56.55
2018-05-23T04:41:05.019Z,56.21
2018-05-23T04:42:09.659Z,55.86
2018-05-23T04:43:13.838Z,56.23
2018-05-23T04:44:18.278Z,56.15
2018-05-23T04:45:22.657Z,55.73
2018-05-23T04:46:26.995Z,55.72
2018-05-23T04:47:31.076Z,55.67
2018-05-23T04:48:35.208Z,55.43
2018-05-23T04:49:39.365Z,55.46
2018-05-23T04:50:43.477Z,55.34
2018-05-23T04:51:47.579Z,55.03
2018-05-23T04:52:51.769Z,54.62
2018-05-23T04:53:55.878Z,54.39
2018-05-23T04:55:00.722Z,54.28
2018-05-23T04:56:05.361Z,53.78
2018-05-23T04:57:09.473Z,54.01
2018-05-23T04:58:13.688Z,53.55
2018-05-23T04:59:17.773Z,53.28
2018-05-23T05:00:22.423Z,52.62
2018-05-23T05:01:27.311Z,52.41
2018-05-23T05:02:31.439Z,52.13
2018-05-23T05:03:35.647Z,51.57
2018-05-23T05:04:39.769Z,52.23
2018-05-23T05:05:43.867Z,51.94
2018-05-23T05:06:47.991Z,53.17
2018-05-23T05:07:52.392Z,53.15
2018-05-23T05:08:56.585Z,54.65
2018-05-23T05:10:00.732Z,53.52
2018-05-23T05:11:05.404Z,51.62
2018-05-23T05:12:09.516Z,51.61
2018-05-23T05:13:13.615Z,51.27
2018-05-23T05:14:18.005Z,51.26
2018-05-23T05:15:22.175Z,50.94
2018-05-23T05:16:26.315Z,50.49
2018-05-23T05:17:30.497Z,50.08
2018-05-23T05:18:34.617Z,49.79
2018-05-23T05:19:38.721Z,49.58
2018-05-23T05:20:42.817Z,49.91
2018-05-23T05:21:46.993Z,49.94
2018-05-23T05:22:51.225Z,49.14
2018-05-23T05:23:55.375Z,49.04
2018-05-23T05:24:59.505Z,49.04
2018-05-23T05:26:03.654Z,49.11
2018-05-23T05:27:08.177Z,48.60
2018-05-23T05:28:12.280Z,48.69
2018-05-23T05:29:16.381Z,49.21
2018-05-23T05:30:20.932Z,49.21
2018-05-23T05:31:25.385Z,48.96
2018-05-23T05:32:29.477Z,48.72
2018-05-23T05:33:33.863Z,49.03
2018-05-23T05:34:38.034Z,49.20
2018-05-23T05:35:42.139Z,49.39
2018-05-23T05:36:46.322Z,49.18
2018-05-23T05:37:50.485Z,49.30
2018-05-23T05:38:54.676Z,49.48
2018-05-23T05:39:59.262Z,49.91
2018-05-23T05:41:03.291Z,50.02
2018-05-23T05:42:07.475Z,50.05
2018-05-23T05:43:11.566Z,50.12
2018-05-23T05:44:15.757Z,50.10
2018-05-23T05:45:21.045Z,50.08
2018-05-23T05:46:25.469Z,50.47
2018-05-23T05:47:29.674Z,50.59
2018-05-23T05:48:33.817Z,50.96
2018-05-23T05:49:38.007Z,50.35
2018-05-23T05:50:42.104Z,50.37
2018-05-23T05:51:46.512Z,49.64
2018-05-23T05:52:50.633Z,49.58
2018-05-23T05:53:54.743Z,49.44
2018-05-23T05:54:58.944Z,49.51
2018-05-23T05:56:03.081Z,49.44
2018-05-23T05:57:08.088Z,49.56
2018-05-23T05:58:12.503Z,49.47
2018-05-23T05:59:16.702Z,49.47
2018-05-23T06:00:21.079Z,49.22
2018-05-23T06:01:25.192Z,48.74
2018-05-23T06:02:29.298Z,48.36
2018-05-23T06:03:33.609Z,48.52
2018-05-23T06:04:38.100Z,48.32
2018-05-23T06:05:42.214Z,48.07
2018-05-23T06:06:46.329Z,47.89
2018-05-23T06:07:50.522Z,47.47
2018-05-23T06:08:54.724Z,47.45
2018-05-23T06:09:58.961Z,46.84
2018-05-23T06:11:03.060Z,46.80
2018-05-23T06:12:08.065Z,46.88
2018-05-23T06:13:13.540Z,46.99
2018-05-23T06:14:17.703Z,46.90
2018-05-23T06:15:22.202Z,46.37
2018-05-23T06:16:26.284Z,46.69
2018-05-23T06:17:30.700Z,46.45
2018-05-23T06:18:34.868Z,46.40
2018-05-23T06:19:39.005Z,45.99
2018-05-23T06:20:43.110Z,45.87
2018-05-23T06:21:47.291Z,46.31
2018-05-23T06:22:51.381Z,45.92
2018-05-23T06:23:55.937Z,45.19
2018-05-23T06:25:00.090Z,44.99
2018-05-23T06:26:04.193Z,45.02
2018-05-23T06:27:08.373Z,44.51
2018-05-23T06:28:12.488Z,43.80
2018-05-23T06:29:16.909Z,43.27
2018-05-23T06:30:21.132Z,42.90
2018-05-23T06:31:25.547Z,42.99
2018-05-23T06:32:29.652Z,42.64
2018-05-23T06:33:33.795Z,42.33
2018-05-23T06:34:38.009Z,41.48
2018-05-23T06:35:42.541Z,41.46
2018-05-23T06:36:46.649Z,41.70
2018-05-23T06:37:50.826Z,41.73
2018-05-23T06:38:54.928Z,41.17
2018-05-23T06:39:59.131Z,40.63
2018-05-23T06:41:03.592Z,40.50
2018-05-23T06:42:07.730Z,40.73
2018-05-23T06:43:11.931Z,41.53
2018-05-23T06:44:16.029Z,41.40
2018-05-23T06:45:20.308Z,40.61
2018-05-23T06:46:24.741Z,40.40
2018-05-23T06:47:29.667Z,39.77
2018-05-23T06:48:33.873Z,40.15
2018-05-23T06:49:37.957Z,40.07
2018-05-23T06:50:42.167Z,40.16
2018-05-23T06:51:46.284Z,40.13
2018-05-23T06:52:50.403Z,40.15
2018-05-23T06:53:54.833Z,40.61
2018-05-23T06:54:59.049Z,40.48
2018-05-23T06:56:03.214Z,40.70
2018-05-23T06:57:07.318Z,40.62
2018-05-23T06:58:11.411Z,39.77
2018-05-23T06:59:15.504Z,39.62
2018-05-23T07:00:20.347Z,39.70
2018-05-23T07:01:24.473Z,38.68
2018-05-23T07:02:28.605Z,38.35
2018-05-23T07:03:32.814Z,38.71
2018-05-23T07:04:36.908Z,38.62
2018-05-23T07:05:41.035Z,38.81
2018-05-23T07:06:45.157Z,38.48
2018-05-23T07:07:49.275Z,38.67
2018-05-23T07:08:53.417Z,38.43
2018-05-23T07:09:57.937Z,39.04
2018-05-23T07:11:02.118Z,39.29
2018-05-23T07:12:06.897Z,39.74
2018-05-23T07:13:11.315Z,39.55
2018-05-23T07:14:15.477Z,39.54
2018-05-23T07:15:19.987Z,39.29
2018-05-23T07:16:24.747Z,40.01
2018-05-23T07:17:29.643Z,38.88
2018-05-23T07:18:33.749Z,37.97
2018-05-23T07:19:37.899Z,38.36
2018-05-23T07:20:42.049Z,37.77
2018-05-23T07:21:46.159Z,37.71
2018-05-23T07:22:50.306Z,37.52
2018-05-23T07:23:54.500Z,37.64
2018-05-23T07:24:58.903Z,37.13
2018-05-23T07:26:03.010Z,36.62
2018-05-23T07:27:07.153Z,36.01
2018-05-23T07:28:11.373Z,35.72
2018-05-23T07:29:15.657Z,34.69
2018-05-23T07:30:20.008Z,34.62
2018-05-23T07:31:25.094Z,34.18
2018-05-23T07:32:29.254Z,34.78
2018-05-23T07:33:33.356Z,33.76
2018-05-23T07:34:37.444Z,34.25
2018-05-23T07:35:41.671Z,34.76
2018-05-23T07:36:45.777Z,35.10
2018-05-23T07:37:49.873Z,34.43
2018-05-23T07:38:54.068Z,34.86
2018-05-23T07:39:58.212Z,34.52
2018-05-23T07:41:02.320Z,34.72
2018-05-23T07:42:06.556Z,34.96
2018-05-23T07:43:10.964Z,34.53
2018-05-23T07:44:15.567Z,34.40
2018-05-23T07:45:20.688Z,34.72
2018-05-23T07:46:25.760Z,34.28
2018-05-23T07:47:29.996Z,33.86
2018-05-23T07:48:34.121Z,34.06
2018-05-23T07:49:38.526Z,34.08
2018-05-23T07:50:42.633Z,34.74
2018-05-23T07:51:46.753Z,34.52
2018-05-23T07:52:50.863Z,34.39
2018-05-23T07:53:55.043Z,34.42
2018-05-23T07:54:59.196Z,34.72
2018-05-23T07:56:03.356Z,34.50
2018-05-23T07:57:07.463Z,34.43
2018-05-23T07:58:11.572Z,34.44
2018-05-23T07:59:15.682Z,34.54
2018-05-23T08:00:20.615Z,34.79
2018-05-23T08:01:25.308Z,34.72
2018-05-23T08:02:29.444Z,35.10
2018-05-23T08:03:33.556Z,35.22
2018-05-23T08:04:37.659Z,34.98
2018-05-23T08:05:41.748Z,35.18
2018-05-23T08:06:45.956Z,35.44
2018-05-23T08:07:50.377Z,35.58
2018-05-23T08:08:54.477Z,34.80
2018-05-23T08:09:58.693Z,34.83
2018-05-23T08:11:02.812Z,34.22
2018-05-23T08:12:06.944Z,33.94
2018-05-23T08:13:11.465Z,34.15
2018-05-23T08:14:15.577Z,34.00
2018-05-23T08:15:20.169Z,33.99
2018-05-23T08:16:24.276Z,33.39
2018-05-23T08:17:28.465Z,33.08
2018-05-23T08:18:32.573Z,33.35
2018-05-23T08:19:36.979Z,33.11
2018-05-23T08:20:41.153Z,33.77
2018-05-23T08:21:45.302Z,33.89
2018-05-23T08:22:49.461Z,33.64
2018-05-23T08:23:53.618Z,33.09
2018-05-23T08:24:57.733Z,33.09
2018-05-23T08:26:02.118Z,32.26
2018-05-23T08:27:06.353Z,32.16
2018-05-23T08:28:10.476Z,31.77
2018-05-23T08:29:14.602Z,31.95
2018-05-23T08:30:18.899Z,31.94
2018-05-23T08:31:23.282Z,32.46
2018-05-23T08:32:27.443Z,33.04
2018-05-23T08:33:31.574Z,32.37
2018-05-23T08:34:35.667Z,32.32
2018-05-23T08:35:39.855Z,32.66
2018-05-23T08:36:43.970Z,32.31
2018-05-23T08:37:48.184Z,32.39
2018-05-23T08:38:52.355Z,32.57
2018-05-23T08:39:56.469Z,32.86
2018-05-23T08:41:00.594Z,32.46
2018-05-23T08:42:04.757Z,32.70
2018-05-23T08:43:08.907Z,33.02
2018-05-23T08:44:13.094Z,32.13
2018-05-23T08:45:17.814Z,32.39
2018-05-23T08:46:21.924Z,32.64
2018-05-23T08:47:26.404Z,32.27
2018-05-23T08:48:30.500Z,32.27
2018-05-23T08:49:34.691Z,31.35
2018-05-23T08:50:38.780Z,30.99
2018-05-23T08:51:42.860Z,31.69
2018-05-23T08:52:46.994Z,31.54
2018-05-23T08:53:51.479Z,30.96
2018-05-23T08:54:55.598Z,31.51
2018-05-23T08:55:59.750Z,30.88
2018-05-23T08:57:03.928Z,30.70
2018-05-23T08:58:08.050Z,30.45
2018-05-23T08:59:12.278Z,30.76
2018-05-23T09:00:17.841Z,30.37
2018-05-23T09:01:22.324Z,30.91
2018-05-23T09:02:26.512Z,31.01
2018-05-23T09:03:30.663Z,31.21
2018-05-23T09:04:35.777Z,30.97
2018-05-23T09:05:39.908Z,31.07
2018-05-23T09:06:44.334Z,31.02
2018-05-23T09:07:48.639Z,30.44
2018-05-23T09:08:52.850Z,29.79
2018-05-23T09:09:56.963Z,30.21
2018-05-23T09:11:01.081Z,30.73
2018-05-23T09:12:05.248Z,30.21
2018-05-23T09:13:09.424Z,29.56
2018-05-23T09:14:13.538Z,29.71
2018-05-23T09:15:18.141Z,29.74
2018-05-23T09:16:22.276Z,29.48
2018-05-23T09:17:27.248Z,29.90
2018-05-23T09:18:31.364Z,29.60
2018-05-23T09:19:35.792Z,29.81
2018-05-23T09:20:39.984Z,29.93
2018-05-23T09:21:44.144Z,29.87
2018-05-23T09:22:48.380Z,29.90
2018-05-23T09:23:52.500Z,30.17
2018-05-23T09:24:56.964Z,29.95
2018-05-23T09:26:01.070Z,29.68
2018-05-23T09:27:05.171Z,29.17
2018-05-23T09:28:09.410Z,29.14
2018-05-23T09:29:13.520Z,28.77
2018-05-23T09:30:18.648Z,28.92
2018-05-23T09:31:23.165Z,28.62
2018-05-23T09:32:27.417Z,28.90
2018-05-23T09:33:32.414Z,29.47
2018-05-23T09:34:36.516Z,29.25
2018-05-23T09:35:40.643Z,28.95
2018-05-23T09:36:44.767Z,28.89
2018-05-23T09:37:49.038Z,28.30
2018-05-23T09:38:53.164Z,28.70
2018-05-23T09:39:57.300Z,27.99
2018-05-23T09:41:01.408Z,28.36
2018-05-23T09:42:05.606Z,28.57
2018-05-23T09:43:09.772Z,27.62
2018-05-23T09:44:14.232Z,27.98
2018-05-23T09:45:18.646Z,28.14
2018-05-23T09:46:22.756Z,28.51
2018-05-23T09:47:26.972Z,27.79
2018-05-23T09:48:31.103Z,26.97
2018-05-23T09:49:35.230Z,27.38
2018-05-23T09:50:39.454Z,27.90
2018-05-23T09:51:43.568Z,27.99
2018-05-23T09:52:47.761Z,27.92
2018-05-23T09:53:52.013Z,28.20
2018-05-23T09:54:56.255Z,27.94
2018-05-23T09:56:00.713Z,28.13
2018-05-23T09:57:04.917Z,28.27
2018-05-23T09:58:09.012Z,28.14
2018-05-23T09:59:13.126Z,28.45
2018-05-23T10:00:21.548Z,28.04
2018-05-23T10:01:26.300Z,27.66
2018-05-23T10:02:30.720Z,27.31
2018-05-23T10:03:34.804Z,27.46
2018-05-23T10:04:38.921Z,27.30
2018-05-23T10:05:43.126Z,26.81
2018-05-23T10:06:47.273Z,26.74
2018-05-23T10:07:51.454Z,26.34
2018-05-23T10:08:55.908Z,26.62
2018-05-23T10:10:00.002Z,26.77
2018-05-23T10:11:04.162Z,26.49
2018-05-23T10:12:08.314Z,25.51
2018-05-23T10:13:12.505Z,25.55
2018-05-23T10:14:17.226Z,25.10
2018-05-23T10:15:21.705Z,25.62
2018-05-23T10:16:25.852Z,25.87
2018-05-23T10:17:29.958Z,26.05
2018-05-23T10:18:34.914Z,25.17
2018-05-23T10:19:39.079Z,25.15
2018-05-23T10:20:43.476Z,25.19
2018-05-23T10:21:47.708Z,25.02
2018-05-23T10:22:51.888Z,25.18
2018-05-23T10:23:56.143Z,25.29
2018-05-23T10:25:00.381Z,25.01
2018-05-23T10:26:04.517Z,25.06
2018-05-23T10:27:08.922Z,25.04
2018-05-23T10:28:13.042Z,24.14
2018-05-23T10:29:17.166Z,23.48
2018-05-23T10:30:21.565Z,23.43
2018-05-23T10:31:25.907Z,23.72
2018-05-23T10:32:30.215Z,23.34
2018-05-23T10:34:40.798Z,22.94
2018-05-23T10:35:44.935Z,22.21
2018-05-23T10:36:49.143Z,22.91
2018-05-23T10:37:53.317Z,23.22
2018-05-23T10:38:57.834Z,23.52
2018-05-23T10:40:01.924Z,23.78
2018-05-23T10:41:06.019Z,24.17
2018-05-23T10:42:10.212Z,22.96
2018-05-23T10:43:14.312Z,22.69
2018-05-23T10:44:18.584Z,23.27
2018-05-23T10:45:23.336Z,23.28
2018-05-23T10:46:27.484Z,23.78
2018-05-23T10:47:31.706Z,24.18
2018-05-23T10:48:36.622Z,23.55
2018-05-23T10:49:40.730Z,23.09
2018-05-23T10:50:44.853Z,23.37
2018-05-23T10:51:49.286Z,23.49
2018-05-23T10:52:53.590Z,23.08
2018-05-23T10:53:57.691Z,23.47
2018-05-23T10:55:01.784Z,22.76
2018-05-23T10:56:05.919Z,22.35
2018-05-23T10:57:10.180Z,22.30
2018-05-23T10:58:14.646Z,22.32
2018-05-23T10:59:18.753Z,22.91
2018-05-23T11:00:23.172Z,22.13
2018-05-23T11:01:27.388Z,21.36
2018-05-23T11:02:31.488Z,21.82
2018-05-23T11:03:36.379Z,21.80
2018-05-23T11:04:40.505Z,22.57
2018-05-23T11:05:44.612Z,22.93
2018-05-23T11:06:49.070Z,23.11
2018-05-23T11:07:53.269Z,23.21
2018-05-23T11:08:57.635Z,23.31
2018-05-23T11:10:01.724Z,22.82
2018-05-23T11:11:05.821Z,22.66
2018-05-23T11:12:09.966Z,22.41
2018-05-23T11:13:14.157Z,21.26
2018-05-23T11:14:18.297Z,21.64
2018-05-23T11:15:23.195Z,21.68
2018-05-23T11:16:27.365Z,21.94
2018-05-23T11:17:31.488Z,22.12
2018-05-23T11:18:35.770Z,21.51
2018-05-23T11:19:40.387Z,21.58
2018-05-23T11:20:44.604Z,21.85
2018-05-23T11:21:50.132Z,23.09
2018-05-23T11:22:54.285Z,23.69
2018-05-23T11:23:58.398Z,24.28
2018-05-23T11:25:02.544Z,24.12
2018-05-23T11:26:06.669Z,23.93
2018-05-23T11:27:10.843Z,23.77
2018-05-23T11:28:15.365Z,23.27
2018-05-23T11:29:19.579Z,23.21
2018-05-23T11:30:24.126Z,22.89
2018-05-23T11:31:28.261Z,23.38
2018-05-23T11:32:32.988Z,23.93
2018-05-23T11:33:37.090Z,24.99
2018-05-23T11:34:41.191Z,25.63
2018-05-23T11:35:45.369Z,24.83
2018-05-23T11:36:49.460Z,24.31
2018-05-23T11:37:53.589Z,24.35
2018-05-23T11:38:57.866Z,24.40
2018-05-23T11:40:01.974Z,23.81
2018-05-23T11:41:06.162Z,22.87
2018-05-23T11:42:10.262Z,23.03
2018-05-23T11:43:14.366Z,23.14
2018-05-23T11:44:18.527Z,23.65
2018-05-23T11:45:23.137Z,24.13
2018-05-23T11:46:28.272Z,23.72
2018-05-23T11:47:33.756Z,23.18
2018-05-23T11:48:37.870Z,22.08
2018-05-23T11:49:42.055Z,21.52
2018-05-23T11:50:46.185Z,21.79
2018-05-23T11:51:50.370Z,21.22
2018-05-23T11:52:54.948Z,21.11
2018-05-23T11:53:59.104Z,20.22
2018-05-23T11:55:03.204Z,21.17
2018-05-23T11:56:07.339Z,20.46
2018-05-23T11:57:11.524Z,19.59
2018-05-23T11:58:15.628Z,20.50
2018-05-23T11:59:19.804Z,20.07
2018-05-23T12:00:24.124Z,19.61
2018-05-23T12:01:28.254Z,20.41
2018-05-23T12:02:32.440Z,21.46
2018-05-23T12:03:37.555Z,22.04
2018-05-23T12:04:42.031Z,22.32
2018-05-23T12:05:46.138Z,23.32
2018-05-23T12:06:50.272Z,21.82
2018-05-23T12:07:54.457Z,21.01
2018-05-23T12:08:58.656Z,20.75
2018-05-23T12:10:02.816Z,20.68
2018-05-23T12:11:07.220Z,19.97
2018-05-23T12:12:11.332Z,19.68
2018-05-23T12:13:15.466Z,19.39
2018-05-23T12:14:19.580Z,19.39
2018-05-23T12:15:24.220Z,18.67
2018-05-23T12:16:28.498Z,19.37
2018-05-23T12:17:33.184Z,19.24
2018-05-23T12:18:38.128Z,19.24
2018-05-23T12:19:42.253Z,18.94
2018-05-23T12:20:46.378Z,17.54
2018-05-23T12:21:50.492Z,17.73
2018-05-23T12:22:54.576Z,16.86
2018-05-23T12:23:59.353Z,16.42
2018-05-23T12:25:03.938Z,17.70
2018-05-23T12:26:08.128Z,18.08
2018-05-23T12:27:12.228Z,18.94
2018-05-23T12:28:16.366Z,18.25
2018-05-23T12:29:20.486Z,17.46
2018-05-23T12:30:24.913Z,17.17
2018-05-23T12:31:29.528Z,17.43
2018-05-23T12:32:33.620Z,18.06
2018-05-23T12:33:38.132Z,18.74
2018-05-23T12:34:42.266Z,19.17
2018-05-23T12:35:46.384Z,19.89
2018-05-23T12:36:50.721Z,19.29
2018-05-23T12:37:55.204Z,20.32
2018-05-23T12:38:59.296Z,20.77
2018-05-23T12:40:03.488Z,20.41
2018-05-23T12:41:08.069Z,21.26
2018-05-23T12:42:12.834Z,20.61
2018-05-23T12:43:17.556Z,19.78
2018-05-23T12:44:22.118Z,18.70
2018-05-23T12:45:26.696Z,18.10
2018-05-23T12:46:30.816Z,18.40
2018-05-23T12:47:35.335Z,18.34
2018-05-23T12:48:39.448Z,18.31
2018-05-23T12:49:43.550Z,18.48
2018-05-23T12:50:47.761Z,18.13
2018-05-23T12:51:51.912Z,17.97
2018-05-23T12:52:56.018Z,17.53
2018-05-23T12:54:00.616Z,18.11
2018-05-23T12:55:04.719Z,18.63
2018-05-23T12:56:08.904Z,18.86
2018-05-23T12:57:13.015Z,18.66
2018-05-23T12:58:17.230Z,17.74
2018-05-23T12:59:21.410Z,16.72
2018-05-23T13:00:26.309Z,17.39
2018-05-23T13:01:30.498Z,17.83
2018-05-23T13:02:35.085Z,17.92
2018-05-23T13:03:39.232Z,17.67
2018-05-23T13:04:43.337Z,17.55
2018-05-23T13:05:47.420Z,16.37
2018-05-23T13:06:52.191Z,15.76
2018-05-23T13:07:56.338Z,14.99
2018-05-23T13:09:00.501Z,14.32
2018-05-23T13:10:04.638Z,14.14
2018-05-23T13:11:08.795Z,14.05
2018-05-23T13:12:13.010Z,14.41
2018-05-23T13:13:17.522Z,15.21
2018-05-23T13:14:21.735Z,15.43
2018-05-23T13:15:26.287Z,16.06
2018-05-23T13:16:30.442Z,17.35
2018-05-23T13:17:34.550Z,17.15
2018-05-23T13:18:38.740Z,17.12
2018-05-23T13:19:42.846Z,18.04
2018-05-23T13:20:47.054Z,18.44
2018-05-23T13:21:51.213Z,18.91
2018-05-23T13:22:55.437Z,19.31
2018-05-23T13:23:59.573Z,19.52
2018-05-23T13:25:04.065Z,19.62
2018-05-23T13:26:18.574Z,19.22
2018-05-23T13:27:22.925Z,17.62
2018-05-23T13:28:27.026Z,17.07
2018-05-23T13:29:32.032Z,16.74
2018-05-23T13:30:36.546Z,16.73
2018-05-23T13:31:41.172Z,16.98
2018-05-23T13:32:45.352Z,18.09
2018-05-23T13:33:49.487Z,18.95
2018-05-23T13:36:02.122Z,20.13
2018-05-23T13:37:06.261Z,20.67
2018-05-23T13:38:10.670Z,21.20
2018-05-23T13:39:14.797Z,21.61
2018-05-23T13:40:18.988Z,21.99
2018-05-23T13:41:23.186Z,21.71
2018-05-23T13:42:27.320Z,21.41
2018-05-23T13:43:32.490Z,21.46
2018-05-23T13:44:36.750Z,21.10
2018-05-23T13:45:41.144Z,21.05
2018-05-23T13:46:45.398Z,21.30
2018-05-23T13:47:49.534Z,21.22
2018-05-23T13:48:53.710Z,20.72
2018-05-23T13:49:58.336Z,20.58
2018-05-23T13:51:02.538Z,20.32
2018-05-23T13:52:06.688Z,20.13
2018-05-23T13:53:10.833Z,20.03
2018-05-23T13:54:14.985Z,19.88